Polk Army Air Field Fort Polk US
ICAO: KPOE
IATA: POE
Category: Medium
Scheduled Services: No

Elevation: 330 ft
TransAlt. 18000 ft.

Airport Communications:
APP/DEP:123.7
ATIS:134.85
FLT FOLLOWING:123.7
GND:121.8
RANGE CON:40.95
MEDEVAC OPS:42.5
POE OPS:36.05
PMSV METRO:135
TWR:41.5

KPOE Zoom In..

If you have problems with the map follow the link
https://www.worldairports.se/pages/airport.php?
ICAO=KPOE

Runways:

(A) RW 16 length 4109 ft width 125 ft
---- / hdg 158

(B) RW 34 length 4109 ft width 125 ft
---- / hdg 338

Location; KPOE
Day. 18 / Time. 01.58 Zulu
* Altimeter: 29.97
* Temperature: 07° c. 44.6°f.
* Wind from: 010° Speed 03 kn.
Dewpoint: 06° c.
Visibility: 10 Statute Miles.
Clouds: Few 1200 ft.
Clouds: Scattered 6500 ft.

KPOE 180158Z AUTO 01003KT 10SM FEW012 SCT065 07/06 A2997 RMK AO2 LTG DSNT N SLP151 T00720059


Wind From 010°
Speed 03 kn.

 
 
jpsmedia.com for Web Design worldairports.se 2019   terms of use